createdAt,value
2018-06-29T00:00:12.614Z,99.37
2018-06-29T00:02:41.880Z,100.00
2018-06-29T00:05:10.982Z,100.00
2018-06-29T00:07:40.078Z,100.00
2018-06-29T00:10:09.286Z,100.00
2018-06-29T00:12:39.345Z,100.00
2018-06-29T00:15:08.582Z,100.00
2018-06-29T00:17:38.351Z,100.00
2018-06-29T00:20:08.217Z,100.00
2018-06-29T00:22:37.471Z,100.00
2018-06-29T00:25:07.433Z,100.00
2018-06-29T00:27:36.699Z,100.00
2018-06-29T00:30:06.582Z,100.00
2018-06-29T00:32:36.159Z,100.00
2018-06-29T00:35:05.492Z,100.00
2018-06-29T00:37:35.507Z,100.00
2018-06-29T00:40:04.664Z,100.00
2018-06-29T00:42:34.427Z,100.00
2018-06-29T00:45:03.542Z,100.00
2018-06-29T00:47:32.639Z,100.00
2018-06-29T00:50:01.535Z,100.00
2018-06-29T00:52:30.662Z,100.00
2018-06-29T00:54:59.795Z,100.00
2018-06-29T00:57:28.890Z,100.00
2018-06-29T00:59:59.342Z,100.00
2018-06-29T01:02:28.471Z,100.00
2018-06-29T01:04:57.954Z,100.00
2018-06-29T01:07:27.163Z,100.00
2018-06-29T01:09:56.330Z,100.00
2018-06-29T01:12:25.555Z,100.00
2018-06-29T01:14:54.835Z,100.00
2018-06-29T01:17:23.957Z,100.00
2018-06-29T01:19:53.112Z,100.00
2018-06-29T01:22:22.246Z,100.00
2018-06-29T01:24:51.586Z,100.00
2018-06-29T01:27:20.748Z,100.00
2018-06-29T01:29:49.877Z,100.00
2018-06-29T01:32:19.028Z,100.00
2018-06-29T01:34:48.190Z,100.00
2018-06-29T01:37:17.314Z,100.00
2018-06-29T01:39:46.546Z,100.00
2018-06-29T01:42:15.711Z,100.00
2018-06-29T01:44:45.885Z,100.00
2018-06-29T01:47:15.679Z,100.00
2018-06-29T01:49:44.970Z,100.00
2018-06-29T01:52:14.285Z,100.00
2018-06-29T01:54:43.586Z,100.00
2018-06-29T01:57:13.283Z,100.00
2018-06-29T01:59:42.615Z,100.00
2018-06-29T02:02:11.942Z,100.00
2018-06-29T02:04:41.826Z,100.00
2018-06-29T02:07:10.967Z,100.00
2018-06-29T02:09:40.091Z,100.00
2018-06-29T02:12:11.575Z,100.00
2018-06-29T02:14:40.827Z,100.00
2018-06-29T02:17:09.953Z,100.00
2018-06-29T02:19:39.145Z,99.89
2018-06-29T02:22:08.839Z,99.51
2018-06-29T02:24:38.906Z,99.80
2018-06-29T02:27:08.338Z,99.94
2018-06-29T02:29:37.510Z,100.00
2018-06-29T02:32:08.236Z,100.00
2018-06-29T02:34:37.682Z,100.00
2018-06-29T02:37:07.993Z,100.00
2018-06-29T02:39:37.131Z,99.92
2018-06-29T02:42:06.330Z,100.00
2018-06-29T02:44:35.467Z,100.00
2018-06-29T02:47:04.664Z,100.00
2018-06-29T02:49:33.814Z,100.00
2018-06-29T02:52:03.503Z,100.00
2018-06-29T02:54:32.608Z,100.00
2018-06-29T02:57:01.737Z,100.00
2018-06-29T02:59:30.801Z,100.00
2018-06-29T03:01:59.858Z,100.00
2018-06-29T03:04:28.933Z,100.00
2018-06-29T03:06:58.163Z,100.00
2018-06-29T03:09:27.611Z,100.00
2018-06-29T03:11:56.782Z,100.00
2018-06-29T03:14:26.207Z,100.00
2018-06-29T03:16:56.015Z,100.00
2018-06-29T03:19:56.418Z,97.73
2018-06-29T03:22:26.250Z,98.04
2018-06-29T03:24:55.488Z,97.87
2018-06-29T03:27:25.231Z,97.79
2018-06-29T03:29:55.190Z,97.50
2018-06-29T03:32:25.044Z,98.34
2018-06-29T03:34:54.234Z,98.46
2018-06-29T03:37:24.057Z,99.72
2018-06-29T03:39:53.127Z,100.00
2018-06-29T03:42:22.402Z,100.00
2018-06-29T03:44:51.479Z,100.00
2018-06-29T03:47:20.636Z,100.00
2018-06-29T03:49:49.714Z,100.00
2018-06-29T03:52:18.804Z,100.00
2018-06-29T03:54:47.909Z,100.00
2018-06-29T03:57:16.983Z,100.00
2018-06-29T03:59:46.098Z,100.00
2018-06-29T04:02:15.186Z,100.00
2018-06-29T04:04:44.255Z,100.00
2018-06-29T04:07:13.390Z,100.00
2018-06-29T04:09:42.515Z,100.00
2018-06-29T04:12:11.674Z,100.00
2018-06-29T04:14:40.742Z,100.00
2018-06-29T04:17:09.831Z,100.00
2018-06-29T04:19:38.903Z,99.89
2018-06-29T04:22:07.965Z,100.00
2018-06-29T04:24:37.094Z,100.00
2018-06-29T04:27:06.159Z,100.00
2018-06-29T04:29:35.401Z,100.00
2018-06-29T04:32:05.466Z,100.00
2018-06-29T04:34:34.714Z,100.00
2018-06-29T04:37:03.793Z,100.00
2018-06-29T04:39:32.878Z,100.00
2018-06-29T04:42:01.974Z,100.00
2018-06-29T04:44:31.064Z,100.00
2018-06-29T04:47:00.174Z,100.00
2018-06-29T04:49:29.262Z,100.00
2018-06-29T04:51:58.970Z,100.00
2018-06-29T04:54:28.102Z,100.00
2018-06-29T04:56:57.967Z,100.00
2018-06-29T04:59:27.056Z,100.00
2018-06-29T05:01:56.165Z,100.00
2018-06-29T05:04:25.253Z,100.00
2018-06-29T05:06:54.357Z,98.98
2018-06-29T05:09:24.005Z,98.55
2018-06-29T05:11:53.398Z,97.46
2018-06-29T05:14:22.531Z,97.33
2018-06-29T05:16:51.598Z,96.57
2018-06-29T05:19:20.695Z,94.60
2018-06-29T05:21:49.798Z,92.81
2018-06-29T05:24:19.742Z,91.76
2018-06-29T05:26:48.824Z,89.55
2018-06-29T05:29:17.926Z,80.78
2018-06-29T05:31:46.981Z,74.00
2018-06-29T05:34:16.879Z,69.73
2018-06-29T05:36:46.950Z,69.53
2018-06-29T05:39:16.850Z,71.92
2018-06-29T05:41:46.133Z,73.20
2018-06-29T05:44:17.243Z,74.77
2018-06-29T05:46:46.794Z,77.77
2018-06-29T05:49:16.642Z,79.15
2018-06-29T05:51:46.419Z,80.16
2018-06-29T05:54:16.270Z,80.87
2018-06-29T05:56:45.333Z,80.13
2018-06-29T05:59:14.417Z,81.83
2018-06-29T06:01:43.545Z,84.16
2018-06-29T06:04:12.638Z,84.05
2018-06-29T06:06:41.706Z,83.99
2018-06-29T06:09:12.319Z,83.44
2018-06-29T06:11:41.955Z,83.68
2018-06-29T06:14:11.683Z,82.33
2018-06-29T06:16:41.605Z,81.12
2018-06-29T06:19:28.457Z,81.01
2018-06-29T06:21:57.903Z,81.73
2018-06-29T06:24:27.411Z,80.32
2018-06-29T06:26:56.890Z,81.22
2018-06-29T06:29:26.866Z,81.43
2018-06-29T06:31:56.218Z,81.65
2018-06-29T06:34:26.212Z,82.63
2018-06-29T06:36:55.911Z,82.44
2018-06-29T06:39:25.226Z,84.56
2018-06-29T06:41:54.955Z,84.39
2018-06-29T06:44:24.514Z,81.74
2018-06-29T06:46:54.031Z,80.78
2018-06-29T06:49:23.330Z,78.92
2018-06-29T06:51:52.410Z,75.29
2018-06-29T06:54:21.498Z,74.43
2018-06-29T06:56:50.558Z,73.88
2018-06-29T06:59:19.694Z,72.48
2018-06-29T07:01:48.737Z,69.82
2018-06-29T07:04:17.902Z,65.94
2018-06-29T07:06:47.204Z,60.04
2018-06-29T07:09:16.281Z,64.83
2018-06-29T07:11:45.351Z,57.88
2018-06-29T07:14:14.790Z,56.83
2018-06-29T07:16:43.838Z,55.80
2018-06-29T07:19:12.919Z,52.45
2018-06-29T07:21:42.015Z,51.48
2018-06-29T07:24:11.137Z,49.25
2018-06-29T07:26:40.234Z,53.00
2018-06-29T07:29:09.387Z,52.54
2018-06-29T07:31:38.503Z,56.28
2018-06-29T07:34:07.783Z,56.53
2018-06-29T07:36:37.190Z,60.29
2018-06-29T07:39:08.425Z,64.26
2018-06-29T07:41:37.526Z,59.82
2018-06-29T07:44:06.602Z,57.72
2018-06-29T07:46:35.732Z,60.21
2018-06-29T07:49:04.756Z,59.15
2018-06-29T07:51:33.822Z,57.08
2018-06-29T07:54:02.931Z,58.63
2018-06-29T07:56:32.231Z,59.25
2018-06-29T07:59:01.324Z,62.24
2018-06-29T08:01:30.393Z,61.42
2018-06-29T08:03:59.508Z,60.97
2018-06-29T08:06:28.543Z,61.44
2018-06-29T08:08:57.650Z,61.74
2018-06-29T08:11:26.978Z,62.32
2018-06-29T08:13:56.074Z,62.75
2018-06-29T08:16:25.162Z,66.37
2018-06-29T08:18:54.267Z,66.10
2018-06-29T08:21:23.381Z,67.82
2018-06-29T08:23:52.526Z,72.73
2018-06-29T08:26:25.682Z,76.34
2018-06-29T08:28:55.795Z,76.76
2018-06-29T08:31:25.683Z,75.78
2018-06-29T08:33:54.793Z,71.92
2018-06-29T08:36:23.867Z,67.86
2018-06-29T08:38:53.239Z,64.88
2018-06-29T08:41:22.735Z,60.09
2018-06-29T08:43:51.966Z,57.44
2018-06-29T08:46:21.369Z,56.37
2018-06-29T08:48:50.726Z,55.29
2018-06-29T08:51:20.458Z,56.08
2018-06-29T08:53:49.700Z,57.15
2018-06-29T08:56:19.594Z,56.03
2018-06-29T08:58:48.943Z,57.58
2018-06-29T09:01:17.966Z,58.26
2018-06-29T09:03:47.402Z,56.93
2018-06-29T09:06:17.298Z,53.57
2018-06-29T09:08:46.702Z,46.96
2018-06-29T09:11:16.107Z,42.44
2018-06-29T09:13:45.382Z,36.99
2018-06-29T09:16:14.747Z,35.55
2018-06-29T09:18:44.142Z,39.43
2018-06-29T09:21:15.215Z,42.73
2018-06-29T09:23:44.330Z,45.14
2018-06-29T09:26:13.422Z,46.64
2018-06-29T09:28:42.524Z,47.92
2018-06-29T09:31:11.651Z,49.62
2018-06-29T09:33:40.715Z,48.25
2018-06-29T09:36:09.822Z,48.58
2018-06-29T09:38:39.714Z,47.01
2018-06-29T09:41:08.844Z,47.65
2018-06-29T09:46:55.382Z,51.35
2018-06-29T09:49:24.743Z,48.88
2018-06-29T09:51:54.394Z,49.80
2018-06-29T09:54:24.175Z,48.32
2018-06-29T09:56:54.434Z,46.10
2018-06-29T09:59:23.691Z,48.87
2018-06-29T10:01:52.811Z,49.28
2018-06-29T10:04:21.952Z,50.37
2018-06-29T10:06:51.822Z,50.44
2018-06-29T10:09:20.926Z,51.40
2018-06-29T10:11:50.031Z,48.27
2018-06-29T10:14:19.794Z,45.47
2018-06-29T10:16:48.938Z,41.19
2018-06-29T10:19:18.274Z,37.06
2018-06-29T10:21:47.538Z,36.34
2018-06-29T10:24:16.621Z,32.95
2018-06-29T10:26:46.142Z,35.78
2018-06-29T10:29:15.348Z,33.71
2018-06-29T10:31:44.457Z,30.29
2018-06-29T10:34:13.604Z,29.26
2018-06-29T10:36:42.779Z,31.38
2018-06-29T10:39:14.647Z,32.66
2018-06-29T10:41:45.139Z,31.18
2018-06-29T10:44:14.274Z,27.19
2018-06-29T10:46:43.386Z,24.65
2018-06-29T10:49:12.722Z,26.08
2018-06-29T13:18:41.298Z,23.58
2018-06-29T13:21:11.031Z,23.21
2018-06-29T13:23:40.331Z,27.72
2018-06-29T13:26:09.698Z,29.52
2018-06-29T13:28:38.987Z,31.89
2018-06-29T13:31:08.450Z,28.70
2018-06-29T13:33:37.834Z,25.68
2018-06-29T13:36:07.184Z,27.61
2018-06-29T13:38:36.517Z,27.80
2018-06-29T13:41:05.231Z,26.42
2018-06-29T13:43:34.316Z,27.46
2018-06-29T13:46:03.836Z,27.35
2018-06-29T13:48:33.043Z,30.58
2018-06-29T13:51:02.122Z,32.18
2018-06-29T13:53:31.455Z,31.28
2018-06-29T13:56:00.567Z,32.40
2018-06-29T13:58:29.674Z,30.50
2018-06-29T14:00:58.787Z,29.00
2018-06-29T14:03:27.942Z,27.67
2018-06-29T14:05:58.096Z,28.18
2018-06-29T14:08:27.479Z,27.70
2018-06-29T14:10:56.894Z,29.23
2018-06-29T14:13:26.202Z,30.75
2018-06-29T14:15:55.558Z,30.63
2018-06-29T14:18:24.998Z,28.08
2018-06-29T14:20:54.362Z,24.01
2018-06-29T14:23:24.794Z,22.36
2018-06-29T14:25:53.904Z,24.22
2018-06-29T14:28:22.998Z,29.08
2018-06-29T14:30:52.137Z,31.01
2018-06-29T14:33:21.322Z,31.38
2018-06-29T14:35:50.468Z,32.43
2018-06-29T14:38:19.559Z,33.15
2018-06-29T14:40:48.668Z,35.93
2018-06-29T14:43:17.763Z,35.91
2018-06-29T14:45:46.857Z,36.74
2018-06-29T14:48:15.925Z,38.63
2018-06-29T14:50:45.059Z,38.17
2018-06-29T14:53:14.154Z,37.29
2018-06-29T14:55:43.246Z,35.52
2018-06-29T14:58:12.686Z,32.33
2018-06-29T15:00:41.810Z,28.53
2018-06-29T15:03:11.400Z,30.05
2018-06-29T15:05:41.050Z,27.53
2018-06-29T15:08:11.690Z,28.43
2018-06-29T15:10:41.206Z,28.06
2018-06-29T15:13:10.882Z,29.28
2018-06-29T15:15:40.332Z,29.07
2018-06-29T15:18:10.320Z,28.41
2018-06-29T15:20:40.161Z,28.02
2018-06-29T15:23:09.562Z,27.42
2018-06-29T15:25:39.386Z,30.96
2018-06-29T15:28:09.597Z,31.96
2018-06-29T15:30:38.622Z,30.69
2018-06-29T15:33:08.358Z,31.89
2018-06-29T15:35:37.473Z,33.93
2018-06-29T15:38:07.366Z,30.30
2018-06-29T15:40:36.502Z,29.30
2018-06-29T15:43:10.459Z,28.56
2018-06-29T15:45:39.610Z,28.39
2018-06-29T15:48:09.762Z,28.43
2018-06-29T15:50:38.879Z,29.59
2018-06-29T15:53:08.398Z,31.16
2018-06-29T15:55:37.518Z,32.86
2018-06-29T15:58:07.174Z,33.52
2018-06-29T16:00:36.317Z,32.76
2018-06-29T16:03:05.122Z,31.98
2018-06-29T16:05:34.219Z,32.80
2018-06-29T16:08:04.135Z,33.62
2018-06-29T16:10:33.250Z,32.55
2018-06-29T16:13:02.375Z,32.64
2018-06-29T16:15:31.483Z,33.91
2018-06-29T16:18:01.178Z,32.73
2018-06-29T16:20:30.347Z,33.23
2018-06-29T16:22:59.498Z,34.79
2018-06-29T16:25:28.702Z,35.21
2018-06-29T16:27:57.835Z,35.95
2018-06-29T16:30:27.031Z,34.74
2018-06-29T16:32:56.326Z,35.08
2018-06-29T16:35:25.479Z,34.49
2018-06-29T16:37:55.294Z,36.08
2018-06-29T16:40:24.982Z,34.99
2018-06-29T16:42:54.439Z,34.98
2018-06-29T16:45:23.758Z,34.62
2018-06-29T16:47:52.858Z,36.01
2018-06-29T16:50:22.634Z,36.27
2018-06-29T16:52:52.580Z,36.33
2018-06-29T16:55:21.696Z,37.82
2018-06-29T16:57:50.819Z,38.62
2018-06-29T17:00:20.273Z,39.92
2018-06-29T17:02:49.416Z,39.79
2018-06-29T17:05:18.924Z,39.44
2018-06-29T17:07:48.197Z,39.53
2018-06-29T17:10:18.131Z,39.36
2018-06-29T17:12:48.243Z,40.55
2018-06-29T17:15:17.462Z,42.48
2018-06-29T17:17:46.783Z,43.22
2018-06-29T17:20:16.095Z,43.67
2018-06-29T17:22:45.388Z,44.40
2018-06-29T17:25:14.795Z,43.97
2018-06-29T17:27:44.550Z,42.63
2018-06-29T17:30:13.798Z,41.11
2018-06-29T17:32:42.992Z,41.55
2018-06-29T17:35:12.813Z,40.30
2018-06-29T17:37:42.194Z,40.48
2018-06-29T17:40:11.715Z,41.42
2018-06-29T17:42:41.402Z,42.45
2018-06-29T17:45:10.523Z,43.16
2018-06-29T17:47:39.992Z,41.87
2018-06-29T17:50:09.147Z,41.14
2018-06-29T17:52:38.283Z,41.94
2018-06-29T17:55:07.450Z,43.13
2018-06-29T17:57:36.937Z,44.17
2018-06-29T18:00:06.777Z,43.86
2018-06-29T18:02:35.902Z,42.73
2018-06-29T18:05:05.547Z,41.83
2018-06-29T18:07:35.570Z,42.34
2018-06-29T18:10:05.545Z,41.72
2018-06-29T18:12:34.783Z,40.74
2018-06-29T18:15:04.834Z,40.93
2018-06-29T18:17:35.106Z,42.49
2018-06-29T18:20:05.386Z,40.70
2018-06-29T18:22:35.407Z,41.69
2018-06-29T18:25:05.258Z,42.75
2018-06-29T18:27:35.069Z,43.80
2018-06-29T18:30:04.995Z,42.72
2018-06-29T18:32:33.794Z,42.78
2018-06-29T18:35:02.835Z,42.31
2018-06-29T18:37:32.675Z,43.81
2018-06-29T18:40:01.779Z,45.31
2018-06-29T18:42:30.894Z,44.15
2018-06-29T18:45:00.072Z,45.53
2018-06-29T18:47:29.629Z,46.24
2018-06-29T18:49:58.846Z,45.03
2018-06-29T18:52:27.981Z,46.36
2018-06-29T18:54:57.111Z,46.13
2018-06-29T18:57:26.262Z,46.51
2018-06-29T18:59:55.374Z,47.51
2018-06-29T19:02:25.314Z,48.59
2018-06-29T19:04:55.359Z,49.65
2018-06-29T19:07:25.058Z,51.44
2018-06-29T19:09:54.626Z,51.83
2018-06-29T19:12:23.946Z,52.34
2018-06-29T19:14:53.538Z,53.76
2018-06-29T19:17:23.402Z,55.26
2018-06-29T19:19:52.989Z,54.84
2018-06-29T19:22:22.493Z,55.62
2018-06-29T19:24:51.985Z,56.17
2018-06-29T19:27:21.461Z,58.23
2018-06-29T19:29:50.638Z,59.16
2018-06-29T19:32:20.426Z,58.32
2018-06-29T19:34:50.496Z,58.53
2018-06-29T19:37:21.347Z,58.67
2018-06-29T19:39:50.950Z,59.34
2018-06-29T19:42:20.345Z,60.22
2018-06-29T19:45:52.837Z,61.16
2018-06-29T19:48:22.355Z,62.03
2018-06-29T19:50:52.356Z,62.91
2018-06-29T19:53:21.720Z,64.03
2018-06-29T19:55:51.363Z,64.34
2018-06-29T19:58:21.538Z,65.15
2018-06-29T20:00:51.395Z,65.73
2018-06-29T20:03:21.046Z,66.37
2018-06-29T20:05:50.158Z,66.81
2018-06-29T20:08:20.703Z,67.53
2018-06-29T20:10:50.617Z,68.55
2018-06-29T20:13:20.535Z,67.79
2018-06-29T20:15:50.330Z,67.58
2018-06-29T20:18:20.191Z,68.62
2018-06-29T20:20:50.579Z,69.79
2018-06-29T20:23:19.962Z,70.75
2018-06-29T20:25:49.322Z,71.00
2018-06-29T20:28:18.850Z,71.90
2018-06-29T20:30:48.869Z,72.23
2018-06-29T20:33:18.386Z,71.85
2018-06-29T20:35:47.791Z,72.42
2018-06-29T20:38:17.937Z,72.91
2018-06-29T20:40:46.934Z,73.44
2018-06-29T20:43:16.083Z,73.40
2018-06-29T20:45:45.310Z,73.82
2018-06-29T20:48:14.463Z,75.00
2018-06-29T20:50:43.630Z,75.64
2018-06-29T20:53:12.766Z,75.35
2018-06-29T20:55:41.912Z,75.45
2018-06-29T20:58:10.998Z,75.61
2018-06-29T21:00:40.138Z,76.33
2018-06-29T21:03:10.007Z,76.16
2018-06-29T21:05:39.123Z,76.43
2018-06-29T21:08:09.850Z,76.53
2018-06-29T21:10:40.042Z,76.06
2018-06-29T21:13:09.962Z,78.09
2018-06-29T21:15:39.707Z,79.43
2018-06-29T21:18:09.691Z,79.30
2018-06-29T21:20:40.156Z,79.16
2018-06-29T21:23:09.554Z,80.02
2018-06-29T21:25:39.358Z,79.84
2018-06-29T21:28:08.470Z,80.12
2018-06-29T21:30:37.622Z,79.88
2018-06-29T21:33:06.785Z,81.03
2018-06-29T21:35:35.937Z,81.56
2018-06-29T21:38:05.148Z,82.01
2018-06-29T21:40:34.706Z,81.05
2018-06-29T21:43:03.891Z,81.69
2018-06-29T21:45:33.699Z,83.34
2018-06-29T21:48:02.806Z,83.43
2018-06-29T21:50:31.939Z,83.52
2018-06-29T21:53:01.039Z,84.09
2018-06-29T21:55:30.318Z,83.72
2018-06-29T21:57:59.421Z,84.75
2018-06-29T22:00:43.778Z,84.10
2018-06-29T22:03:13.634Z,84.87
2018-06-29T22:05:43.734Z,86.79
2018-06-29T22:08:12.888Z,86.80
2018-06-29T22:10:41.978Z,86.64
2018-06-29T22:13:11.075Z,86.31
2018-06-29T22:15:40.199Z,85.98
2018-06-29T22:18:09.343Z,86.13
2018-06-29T22:20:38.458Z,86.65
2018-06-29T22:23:07.554Z,86.52
2018-06-29T22:25:36.664Z,86.75
2018-06-29T22:28:05.990Z,87.25
2018-06-29T22:30:35.161Z,87.57
2018-06-29T22:33:05.239Z,88.13
2018-06-29T22:35:34.402Z,88.52
2018-06-29T22:38:04.027Z,89.08
2018-06-29T22:40:33.112Z,90.13
2018-06-29T22:43:02.242Z,89.83
2018-06-29T22:45:31.890Z,90.60
2018-06-29T22:48:00.718Z,91.11
2018-06-29T22:50:32.525Z,91.34
2018-06-29T22:53:01.635Z,91.29
2018-06-29T22:55:30.730Z,91.17
2018-06-29T22:57:59.846Z,91.64
2018-06-29T23:00:29.083Z,92.09
2018-06-29T23:03:07.835Z,92.40
2018-06-29T23:05:36.927Z,93.83
2018-06-29T23:08:06.925Z,93.96
2018-06-29T23:10:36.012Z,95.04
2018-06-29T23:13:05.258Z,96.14
2018-06-29T23:15:35.994Z,95.39
2018-06-29T23:18:05.150Z,94.77
2018-06-29T23:20:34.250Z,95.00
2018-06-29T23:23:04.166Z,95.32
2018-06-29T23:25:33.262Z,96.33
2018-06-29T23:28:02.363Z,96.63
2018-06-29T23:30:31.502Z,96.38
2018-06-29T23:33:01.366Z,97.11
2018-06-29T23:35:30.614Z,97.45
2018-06-29T23:38:00.382Z,98.02
2018-06-29T23:40:29.695Z,98.65
2018-06-29T23:42:58.950Z,98.88
2018-06-29T23:45:28.240Z,99.22
2018-06-29T23:47:57.530Z,98.78
2018-06-29T23:50:26.798Z,98.51
2018-06-29T23:52:56.698Z,98.55
2018-06-29T23:55:26.035Z,98.73
2018-06-29T23:57:55.461Z,99.07
